N9GW KMEM-KMSP
Flight info
| Callsign | N9GW |
|---|---|
| Flight time | 1h 34m |
| Altitude | 43000 |
| Route | JTEEE5 ODATE STL IOW MNOSO BLUEM5 |
| Aircraft | C25C/M-SDE2E3FGHRWXY/LB1 |
Departure
| Time | 2026-05-04 18:45 |
|---|---|
| Airport | Memphis International Airport (KMEM) |
Arrival
| Time | 2026-05-04 20:19 |
|---|---|
| Airport | Minneapolis–Saint Paul International Airport / Wold–Chamberlain Field (KMSP) |
| Time | Latitude | Longitude | Altitude | Speed | Heading |
|---|---|---|---|---|---|
| 2026-05-04 18:37 | 35.05434 | -89.98251 | 324 ft | 0 kts | 271° |
| 2026-05-04 18:41 | 35.05437 | -89.98261 | 322 ft | 7 kts | 303° |
| 2026-05-04 18:42 | 35.05470 | -89.98229 | 324 ft | 8 kts | 72° |
| 2026-05-04 18:42 | 35.05482 | -89.98159 | 324 ft | 9 kts | 84° |
| 2026-05-04 18:42 | 35.05484 | -89.98091 | 324 ft | 0 kts | 89° |
| 2026-05-04 18:43 | 35.05485 | -89.98045 | 324 ft | 18 kts | 89° |
| 2026-05-04 18:43 | 35.05483 | -89.97912 | 323 ft | 12 kts | 92° |
| 2026-05-04 18:43 | 35.05476 | -89.97809 | 322 ft | 8 kts | 109° |
| 2026-05-04 18:44 | 35.05450 | -89.97756 | 322 ft | 5 kts | 118° |
| 2026-05-04 18:44 | 35.05446 | -89.97742 | 321 ft | 6 kts | 105° |
| 2026-05-04 18:44 | 35.05440 | -89.97631 | 318 ft | 7 kts | 125° |
| 2026-05-04 18:44 | 35.05355 | -89.97619 | 318 ft | 40 kts | 179° |
| 2026-05-04 18:45 | 35.04698 | -89.97598 | 382 ft | 140 kts | 178° |
| 2026-05-04 18:45 | 35.03597 | -89.97427 | 1094 ft | 168 kts | 171° |
| 2026-05-04 18:45 | 35.02375 | -89.97183 | 1901 ft | 190 kts | 180° |
| 2026-05-04 18:45 | 35.00975 | -89.97017 | 2540 ft | 212 kts | 179° |
| 2026-05-04 18:46 | 34.99503 | -89.97405 | 3074 ft | 226 kts | 213° |
| 2026-05-04 18:46 | 34.98169 | -89.98394 | 4496 ft | 229 kts | 208° |
| 2026-05-04 18:46 | 34.96742 | -89.99308 | 5795 ft | 233 kts | 212° |
| 2026-05-04 18:46 | 34.95401 | -90.00446 | 7055 ft | 238 kts | 222° |
| 2026-05-04 18:47 | 34.94502 | -90.02157 | 8237 ft | 245 kts | 244° |
| 2026-05-04 18:47 | 34.94160 | -90.04207 | 9421 ft | 255 kts | 269° |
| 2026-05-04 18:47 | 34.94192 | -90.06385 | 10544 ft | 258 kts | 266° |
| 2026-05-04 18:47 | 34.94167 | -90.07095 | 10885 ft | 259 kts | 265° |
| 2026-05-04 18:48 | 34.94147 | -90.08286 | 11448 ft | 262 kts | 268° |
| 2026-05-04 18:48 | 34.94233 | -90.10525 | 12492 ft | 269 kts | 277° |
| 2026-05-04 18:48 | 34.94975 | -90.12670 | 13478 ft | 280 kts | 294° |
| 2026-05-04 18:49 | 34.95808 | -90.14828 | 14439 ft | 283 kts | 290° |
| 2026-05-04 18:49 | 34.96699 | -90.16989 | 15377 ft | 289 kts | 297° |
| 2026-05-04 18:49 | 34.98126 | -90.18762 | 16325 ft | 301 kts | 320° |
| 2026-05-04 18:49 | 35.00052 | -90.19847 | 17292 ft | 314 kts | 344° |
| 2026-05-04 18:50 | 35.02254 | -90.20100 | 18270 ft | 320 kts | 352° |
| 2026-05-04 18:50 | 35.04487 | -90.20246 | 19128 ft | 323 kts | 354° |
| 2026-05-04 18:50 | 35.06740 | -90.20303 | 20028 ft | 324 kts | 353° |
| 2026-05-04 18:50 | 35.09003 | -90.20317 | 20950 ft | 330 kts | 2° |
| 2026-05-04 18:51 | 35.11254 | -90.19579 | 21839 ft | 337 kts | 10° |
| 2026-05-04 18:51 | 35.13537 | -90.18952 | 22749 ft | 337 kts | 7° |
| 2026-05-04 18:51 | 35.15832 | -90.18270 | 23630 ft | 341 kts | 9° |
| 2026-05-04 18:51 | 35.18140 | -90.17536 | 24387 ft | 344 kts | 9° |
| 2026-05-04 18:52 | 35.20469 | -90.16799 | 25119 ft | 347 kts | 8° |
| 2026-05-04 18:52 | 35.22823 | -90.16085 | 25819 ft | 350 kts | 8° |
| 2026-05-04 18:52 | 35.25200 | -90.15352 | 26522 ft | 354 kts | 8° |
| 2026-05-04 18:52 | 35.27601 | -90.14611 | 27179 ft | 358 kts | 8° |
| 2026-05-04 18:53 | 35.30029 | -90.13853 | 27837 ft | 361 kts | 8° |
| 2026-05-04 18:53 | 35.32480 | -90.13098 | 28465 ft | 365 kts | 8° |
| 2026-05-04 18:53 | 35.34938 | -90.12331 | 29261 ft | 363 kts | 8° |
| 2026-05-04 18:53 | 35.37354 | -90.11585 | 30075 ft | 361 kts | 8° |
| 2026-05-04 18:54 | 35.39785 | -90.10828 | 30770 ft | 359 kts | 8° |
| 2026-05-04 18:54 | 35.42197 | -90.10082 | 31461 ft | 356 kts | 8° |
| 2026-05-04 18:54 | 35.44588 | -90.09338 | 32135 ft | 354 kts | 7° |
| 2026-05-04 18:54 | 35.46965 | -90.08599 | 32788 ft | 351 kts | 7° |
| 2026-05-04 18:55 | 35.49327 | -90.07866 | 33438 ft | 349 kts | 6° |
| 2026-05-04 18:55 | 35.54006 | -90.06411 | 34564 ft | 345 kts | 6° |
| 2026-05-04 18:55 | 35.56325 | -90.05685 | 35089 ft | 342 kts | 5° |
| 2026-05-04 18:56 | 35.57881 | -90.05202 | 35447 ft | 340 kts | 5° |
| 2026-05-04 18:56 | 35.60163 | -90.04488 | 35982 ft | 337 kts | 4° |
| 2026-05-04 18:56 | 35.62435 | -90.03984 | 36508 ft | 327 kts | 357° |
| 2026-05-04 18:56 | 35.64669 | -90.03805 | 37049 ft | 317 kts | 351° |
| 2026-05-04 18:57 | 35.66844 | -90.03909 | 37607 ft | 309 kts | 345° |
| 2026-05-04 18:57 | 35.69115 | -90.04117 | 38221 ft | 305 kts | 346° |
| 2026-05-04 18:57 | 35.77496 | -90.04847 | 39771 ft | 306 kts | 345° |
| 2026-05-04 18:57 | 35.86047 | -90.05952 | 41024 ft | 310 kts | 343° |
| 2026-05-04 18:58 | 35.94702 | -90.07143 | 42288 ft | 315 kts | 343° |
| 2026-05-04 18:58 | 36.03628 | -90.08362 | 42905 ft | 337 kts | 344° |
| 2026-05-04 18:58 | 36.13392 | -90.09683 | 42908 ft | 367 kts | 345° |
| 2026-05-04 18:58 | 36.23859 | -90.11109 | 42907 ft | 388 kts | 346° |
| 2026-05-04 18:59 | 36.29864 | -90.11928 | 42903 ft | 395 kts | 346° |
| 2026-05-04 18:59 | 36.35360 | -90.12682 | 42905 ft | 399 kts | 346° |
| 2026-05-04 19:00 | 36.40896 | -90.13442 | 42911 ft | 402 kts | 346° |
| 2026-05-04 19:00 | 36.46471 | -90.14207 | 42902 ft | 404 kts | 346° |
| 2026-05-04 19:01 | 36.52077 | -90.14978 | 42895 ft | 407 kts | 346° |
| 2026-05-04 19:01 | 36.57721 | -90.15755 | 42881 ft | 408 kts | 346° |
| 2026-05-04 19:02 | 36.63381 | -90.16537 | 42880 ft | 410 kts | 346° |
| 2026-05-04 19:02 | 36.69056 | -90.17322 | 42878 ft | 411 kts | 346° |
| 2026-05-04 19:03 | 36.74739 | -90.18107 | 42890 ft | 412 kts | 346° |
| 2026-05-04 19:03 | 36.80447 | -90.18898 | 42876 ft | 413 kts | 347° |
| 2026-05-04 19:04 | 36.86163 | -90.19691 | 42876 ft | 413 kts | 346° |
| 2026-05-04 19:04 | 36.91882 | -90.20488 | 42873 ft | 414 kts | 346° |
| 2026-05-04 19:05 | 36.97574 | -90.21281 | 42871 ft | 414 kts | 347° |
| 2026-05-04 19:05 | 37.03308 | -90.22079 | 42864 ft | 415 kts | 347° |
| 2026-05-04 19:06 | 37.09054 | -90.22881 | 42861 ft | 415 kts | 347° |
| 2026-05-04 19:06 | 37.14809 | -90.23687 | 42857 ft | 416 kts | 347° |
| 2026-05-04 19:07 | 37.20559 | -90.24491 | 42859 ft | 416 kts | 347° |
| 2026-05-04 19:07 | 37.26312 | -90.25306 | 42853 ft | 417 kts | 347° |
| 2026-05-04 19:08 | 37.32084 | -90.26107 | 42854 ft | 417 kts | 347° |
| 2026-05-04 19:08 | 37.37847 | -90.26922 | 42851 ft | 417 kts | 347° |
| 2026-05-04 19:09 | 37.43577 | -90.27730 | 42844 ft | 417 kts | 347° |
| 2026-05-04 19:09 | 37.49344 | -90.28546 | 42843 ft | 418 kts | 347° |
| 2026-05-04 19:10 | 37.55140 | -90.29363 | 42836 ft | 419 kts | 347° |
| 2026-05-04 19:10 | 37.60939 | -90.30184 | 42833 ft | 419 kts | 347° |
| 2026-05-04 19:11 | 37.66737 | -90.31006 | 42830 ft | 419 kts | 347° |
| 2026-05-04 19:11 | 37.72538 | -90.31831 | 42835 ft | 420 kts | 347° |
| 2026-05-04 19:12 | 37.81258 | -90.33072 | 42828 ft | 420 kts | 347° |
| 2026-05-04 19:13 | 37.87076 | -90.33903 | 42829 ft | 421 kts | 347° |
| 2026-05-04 19:13 | 37.92895 | -90.34735 | 42828 ft | 421 kts | 347° |
| 2026-05-04 19:14 | 37.98723 | -90.35568 | 42832 ft | 422 kts | 347° |
| 2026-05-04 19:14 | 38.04561 | -90.36403 | 42822 ft | 422 kts | 347° |
| 2026-05-04 19:15 | 38.10409 | -90.37244 | 42811 ft | 423 kts | 347° |
| 2026-05-04 19:15 | 38.16220 | -90.38080 | 42812 ft | 423 kts | 347° |
| 2026-05-04 19:16 | 38.22075 | -90.38923 | 42806 ft | 423 kts | 347° |
| 2026-05-04 19:16 | 38.27941 | -90.39768 | 42805 ft | 424 kts | 347° |
| 2026-05-04 19:17 | 38.33817 | -90.40617 | 42795 ft | 425 kts | 347° |
| 2026-05-04 19:17 | 38.39686 | -90.41468 | 42789 ft | 424 kts | 347° |
| 2026-05-04 19:18 | 38.45546 | -90.42317 | 42783 ft | 424 kts | 347° |
| 2026-05-04 19:18 | 38.51403 | -90.43168 | 42777 ft | 423 kts | 347° |
| 2026-05-04 19:19 | 38.57222 | -90.44013 | 42746 ft | 423 kts | 347° |
| 2026-05-04 19:19 | 38.63067 | -90.44863 | 42741 ft | 423 kts | 347° |
| 2026-05-04 19:20 | 38.68913 | -90.45717 | 42791 ft | 423 kts | 347° |
| 2026-05-04 19:20 | 38.74764 | -90.46573 | 42791 ft | 423 kts | 347° |
| 2026-05-04 19:21 | 38.80608 | -90.47429 | 42788 ft | 422 kts | 347° |
| 2026-05-04 19:21 | 38.86415 | -90.48469 | 42722 ft | 417 kts | 341° |
| 2026-05-04 19:22 | 38.91931 | -90.50635 | 42736 ft | 414 kts | 336° |
| 2026-05-04 19:22 | 38.97389 | -90.52853 | 42738 ft | 414 kts | 337° |
| 2026-05-04 19:23 | 39.02880 | -90.55109 | 42738 ft | 414 kts | 336° |
| 2026-05-04 19:23 | 39.08376 | -90.57368 | 42735 ft | 415 kts | 337° |
| 2026-05-04 19:24 | 39.13881 | -90.59633 | 42726 ft | 415 kts | 337° |
| 2026-05-04 19:24 | 39.19383 | -90.61901 | 42720 ft | 415 kts | 337° |
| 2026-05-04 19:25 | 39.24887 | -90.64170 | 42712 ft | 415 kts | 337° |
| 2026-05-04 19:25 | 39.30391 | -90.66448 | 42712 ft | 415 kts | 336° |
| 2026-05-04 19:26 | 39.35887 | -90.68724 | 42716 ft | 416 kts | 336° |
| 2026-05-04 19:26 | 39.41402 | -90.71012 | 42713 ft | 416 kts | 337° |
| 2026-05-04 19:27 | 39.46913 | -90.73301 | 42718 ft | 416 kts | 337° |
| 2026-05-04 19:27 | 39.52425 | -90.75594 | 42723 ft | 416 kts | 336° |
| 2026-05-04 19:28 | 39.57944 | -90.77897 | 42744 ft | 416 kts | 336° |
| 2026-05-04 19:28 | 39.63459 | -90.80201 | 42725 ft | 417 kts | 336° |
| 2026-05-04 19:29 | 39.68946 | -90.82496 | 42725 ft | 417 kts | 336° |
| 2026-05-04 19:29 | 39.74462 | -90.84806 | 42721 ft | 417 kts | 336° |
| 2026-05-04 19:30 | 39.79980 | -90.87121 | 42712 ft | 417 kts | 336° |
| 2026-05-04 19:30 | 39.85505 | -90.89445 | 42703 ft | 417 kts | 336° |
| 2026-05-04 19:31 | 39.91031 | -90.91773 | 42692 ft | 417 kts | 336° |
| 2026-05-04 19:31 | 39.96548 | -90.94101 | 42693 ft | 417 kts | 336° |
| 2026-05-04 19:32 | 40.02072 | -90.96436 | 42689 ft | 417 kts | 336° |
| 2026-05-04 19:32 | 40.07575 | -90.98764 | 42689 ft | 418 kts | 337° |
| 2026-05-04 19:33 | 40.13099 | -91.01105 | 42673 ft | 418 kts | 336° |
| 2026-05-04 19:33 | 40.18626 | -91.03454 | 42673 ft | 417 kts | 336° |
| 2026-05-04 19:34 | 40.24153 | -91.05806 | 42669 ft | 417 kts | 336° |
| 2026-05-04 19:34 | 40.29677 | -91.08162 | 42672 ft | 418 kts | 337° |
| 2026-05-04 19:35 | 40.35214 | -91.10525 | 42669 ft | 418 kts | 337° |
| 2026-05-04 19:35 | 40.40743 | -91.12888 | 42666 ft | 418 kts | 337° |
| 2026-05-04 19:36 | 40.46267 | -91.15255 | 42667 ft | 418 kts | 336° |
| 2026-05-04 19:36 | 40.51796 | -91.17629 | 42658 ft | 418 kts | 336° |
| 2026-05-04 19:37 | 40.57287 | -91.19991 | 42659 ft | 417 kts | 336° |
| 2026-05-04 19:37 | 40.62810 | -91.22369 | 42660 ft | 417 kts | 337° |
| 2026-05-04 19:38 | 40.68326 | -91.24747 | 42661 ft | 417 kts | 336° |
| 2026-05-04 19:38 | 40.73838 | -91.27129 | 42660 ft | 417 kts | 336° |
| 2026-05-04 19:39 | 40.79386 | -91.29531 | 42657 ft | 417 kts | 336° |
| 2026-05-04 19:39 | 40.84867 | -91.31909 | 42654 ft | 417 kts | 336° |
| 2026-05-04 19:40 | 40.90377 | -91.34303 | 42675 ft | 417 kts | 336° |
| 2026-05-04 19:40 | 40.95892 | -91.36703 | 42659 ft | 417 kts | 337° |
| 2026-05-04 19:41 | 41.00519 | -91.38719 | 42658 ft | 417 kts | 337° |
| 2026-05-04 19:41 | 41.06006 | -91.41114 | 42655 ft | 417 kts | 336° |
| 2026-05-04 19:42 | 41.11523 | -91.43528 | 42651 ft | 417 kts | 336° |
| 2026-05-04 19:42 | 41.17044 | -91.45948 | 42632 ft | 418 kts | 336° |
| 2026-05-04 19:43 | 41.22559 | -91.48369 | 42629 ft | 418 kts | 336° |
| 2026-05-04 19:43 | 41.28075 | -91.50793 | 42629 ft | 418 kts | 336° |
| 2026-05-04 19:44 | 41.33596 | -91.53225 | 42630 ft | 417 kts | 336° |
| 2026-05-04 19:44 | 41.39115 | -91.55660 | 42631 ft | 418 kts | 336° |
| 2026-05-04 19:45 | 41.44634 | -91.58102 | 42631 ft | 418 kts | 336° |
| 2026-05-04 19:45 | 41.50109 | -91.60553 | 42635 ft | 416 kts | 334° |
| 2026-05-04 19:45 | 41.52676 | -91.62246 | 42616 ft | 403 kts | 324° |
| 2026-05-04 19:46 | 41.54924 | -91.64450 | 42624 ft | 399 kts | 317° |
| 2026-05-04 19:46 | 41.59191 | -91.69221 | 42642 ft | 400 kts | 317° |
| 2026-05-04 19:47 | 41.71110 | -91.82040 | 42612 ft | 401 kts | 317° |
| 2026-05-04 19:47 | 41.88457 | -92.00893 | 42592 ft | 401 kts | 317° |
| 2026-05-04 19:48 | 42.05809 | -92.19885 | 42591 ft | 401 kts | 317° |
| 2026-05-04 19:48 | 42.23087 | -92.38936 | 42602 ft | 401 kts | 317° |
| 2026-05-04 19:49 | 42.40689 | -92.57402 | 42607 ft | 409 kts | 329° |
| 2026-05-04 19:49 | 42.50945 | -92.63934 | 42609 ft | 408 kts | 329° |
| 2026-05-04 19:50 | 42.56076 | -92.67226 | 42593 ft | 408 kts | 329° |
| 2026-05-04 19:50 | 42.61169 | -92.70520 | 42608 ft | 408 kts | 329° |
| 2026-05-04 19:51 | 42.66295 | -92.73837 | 42606 ft | 408 kts | 329° |
| 2026-05-04 19:51 | 42.71416 | -92.77159 | 42611 ft | 407 kts | 329° |
| 2026-05-04 19:52 | 42.76554 | -92.80499 | 42039 ft | 408 kts | 329° |
| 2026-05-04 19:52 | 42.79106 | -92.82154 | 41507 ft | 404 kts | 328° |
| 2026-05-04 19:52 | 42.81630 | -92.83821 | 40978 ft | 402 kts | 328° |
| 2026-05-04 19:52 | 42.84141 | -92.85484 | 40452 ft | 400 kts | 328° |
| 2026-05-04 19:53 | 42.86641 | -92.87132 | 39931 ft | 399 kts | 328° |
| 2026-05-04 19:53 | 42.89133 | -92.88772 | 39392 ft | 397 kts | 327° |
| 2026-05-04 19:53 | 42.91615 | -92.90408 | 38878 ft | 395 kts | 327° |
| 2026-05-04 19:53 | 42.94055 | -92.92025 | 38366 ft | 394 kts | 327° |
| 2026-05-04 19:54 | 42.96518 | -92.93652 | 37790 ft | 391 kts | 327° |
| 2026-05-04 19:54 | 42.98950 | -92.95263 | 37301 ft | 387 kts | 327° |
| 2026-05-04 19:54 | 43.01364 | -92.96859 | 36782 ft | 384 kts | 327° |
| 2026-05-04 19:54 | 43.03757 | -92.98450 | 36276 ft | 381 kts | 327° |
| 2026-05-04 19:55 | 43.06150 | -93.00042 | 35779 ft | 385 kts | 327° |
| 2026-05-04 19:55 | 43.08580 | -93.01658 | 35273 ft | 391 kts | 327° |
| 2026-05-04 19:55 | 43.11044 | -93.03295 | 34757 ft | 396 kts | 327° |
| 2026-05-04 19:55 | 43.13539 | -93.04949 | 34234 ft | 400 kts | 327° |
| 2026-05-04 19:56 | 43.16051 | -93.06625 | 33712 ft | 403 kts | 327° |
| 2026-05-04 19:56 | 43.18585 | -93.08312 | 33140 ft | 406 kts | 327° |
| 2026-05-04 19:56 | 43.21123 | -93.10006 | 32604 ft | 407 kts | 327° |
| 2026-05-04 19:56 | 43.23670 | -93.11704 | 32065 ft | 408 kts | 327° |
| 2026-05-04 19:57 | 43.26228 | -93.13418 | 31525 ft | 409 kts | 327° |
| 2026-05-04 19:57 | 43.28789 | -93.15129 | 30983 ft | 411 kts | 327° |
| 2026-05-04 19:57 | 43.31361 | -93.16856 | 30441 ft | 412 kts | 327° |
| 2026-05-04 19:57 | 43.33947 | -93.18585 | 29891 ft | 414 kts | 327° |
| 2026-05-04 19:58 | 43.36540 | -93.20330 | 29303 ft | 416 kts | 327° |
| 2026-05-04 19:58 | 43.39145 | -93.22074 | 28778 ft | 417 kts | 327° |
| 2026-05-04 19:58 | 43.41754 | -93.23832 | 28194 ft | 417 kts | 327° |
| 2026-05-04 19:58 | 43.44362 | -93.25583 | 27644 ft | 417 kts | 327° |
| 2026-05-04 19:59 | 43.46969 | -93.27344 | 27097 ft | 417 kts | 327° |
| 2026-05-04 19:59 | 43.49685 | -93.28838 | 26531 ft | 431 kts | 340° |
| 2026-05-04 19:59 | 43.52746 | -93.29005 | 25960 ft | 449 kts | 356° |
| 2026-05-04 19:59 | 43.55828 | -93.28696 | 25377 ft | 431 kts | 358° |
| 2026-05-04 20:00 | 43.58735 | -93.28293 | 24853 ft | 415 kts | 357° |
| 2026-05-04 20:00 | 43.61654 | -93.28022 | 24313 ft | 426 kts | 355° |
| 2026-05-04 20:00 | 43.64619 | -93.27795 | 23750 ft | 426 kts | 356° |
| 2026-05-04 20:00 | 43.67566 | -93.27501 | 23165 ft | 423 kts | 357° |
| 2026-05-04 20:01 | 43.70488 | -93.27194 | 22587 ft | 418 kts | 357° |
| 2026-05-04 20:01 | 43.73375 | -93.26913 | 22035 ft | 414 kts | 356° |
| 2026-05-04 20:01 | 43.76194 | -93.26647 | 21496 ft | 410 kts | 356° |
| 2026-05-04 20:01 | 43.79025 | -93.26381 | 20971 ft | 406 kts | 356° |
| 2026-05-04 20:02 | 43.81842 | -93.26101 | 20415 ft | 404 kts | 356° |
| 2026-05-04 20:02 | 43.84637 | -93.25830 | 19878 ft | 401 kts | 356° |
| 2026-05-04 20:02 | 43.87413 | -93.25558 | 19347 ft | 399 kts | 356° |
| 2026-05-04 20:02 | 43.90171 | -93.25295 | 18804 ft | 396 kts | 356° |
| 2026-05-04 20:03 | 43.92911 | -93.25024 | 18285 ft | 393 kts | 356° |
| 2026-05-04 20:03 | 43.95629 | -93.24761 | 17744 ft | 390 kts | 356° |
| 2026-05-04 20:03 | 43.98327 | -93.24494 | 17251 ft | 387 kts | 356° |
| 2026-05-04 20:03 | 44.00997 | -93.24198 | 16712 ft | 384 kts | 356° |
| 2026-05-04 20:04 | 44.03653 | -93.23911 | 16204 ft | 381 kts | 356° |
| 2026-05-04 20:04 | 44.06263 | -93.23623 | 16008 ft | 371 kts | 356° |
| 2026-05-04 20:04 | 44.08828 | -93.23357 | 15575 ft | 369 kts | 355° |
| 2026-05-04 20:04 | 44.11398 | -93.23086 | 15091 ft | 370 kts | 356° |
| 2026-05-04 20:05 | 44.13966 | -93.22813 | 14602 ft | 370 kts | 356° |
| 2026-05-04 20:05 | 44.16537 | -93.22529 | 14113 ft | 371 kts | 356° |
| 2026-05-04 20:05 | 44.19110 | -93.22256 | 13633 ft | 371 kts | 356° |
| 2026-05-04 20:05 | 44.21635 | -93.22012 | 13123 ft | 352 kts | 355° |
| 2026-05-04 20:06 | 44.24018 | -93.21814 | 12661 ft | 335 kts | 354° |
| 2026-05-04 20:06 | 44.26298 | -93.21606 | 12227 ft | 323 kts | 354° |
| 2026-05-04 20:06 | 44.28507 | -93.21415 | 11804 ft | 314 kts | 354° |
| 2026-05-04 20:06 | 44.30660 | -93.21224 | 11419 ft | 306 kts | 353° |
| 2026-05-04 20:07 | 44.32772 | -93.21084 | 11019 ft | 302 kts | 352° |
| 2026-05-04 20:07 | 44.34849 | -93.20912 | 10624 ft | 296 kts | 352° |
| 2026-05-04 20:07 | 44.36889 | -93.20759 | 10238 ft | 291 kts | 352° |
| 2026-05-04 20:07 | 44.38912 | -93.20242 | 9862 ft | 301 kts | 5° |
| 2026-05-04 20:08 | 44.40920 | -93.19547 | 9439 ft | 293 kts | 0° |
| 2026-05-04 20:08 | 44.42895 | -93.18876 | 9084 ft | 298 kts | 12° |
| 2026-05-04 20:08 | 44.44639 | -93.17332 | 9034 ft | 302 kts | 25° |
| 2026-05-04 20:08 | 44.46415 | -93.15684 | 9029 ft | 304 kts | 24° |
| 2026-05-04 20:09 | 44.48122 | -93.13946 | 9033 ft | 310 kts | 28° |
| 2026-05-04 20:09 | 44.49861 | -93.12150 | 9031 ft | 310 kts | 26° |
| 2026-05-04 20:09 | 44.51627 | -93.10406 | 9003 ft | 312 kts | 26° |
| 2026-05-04 20:09 | 44.53406 | -93.08637 | 8688 ft | 312 kts | 26° |
| 2026-05-04 20:10 | 44.55150 | -93.06892 | 8291 ft | 304 kts | 27° |
| 2026-05-04 20:10 | 44.56842 | -93.05184 | 7896 ft | 296 kts | 27° |
| 2026-05-04 20:10 | 44.58508 | -93.03533 | 7512 ft | 290 kts | 28° |
| 2026-05-04 20:10 | 44.60132 | -93.01894 | 7120 ft | 285 kts | 29° |
| 2026-05-04 20:11 | 44.61710 | -93.00325 | 7041 ft | 271 kts | 28° |
| 2026-05-04 20:11 | 44.63201 | -92.98768 | 7016 ft | 265 kts | 32° |
| 2026-05-04 20:11 | 44.64617 | -92.97156 | 7004 ft | 258 kts | 31° |
| 2026-05-04 20:11 | 44.66045 | -92.95607 | 6852 ft | 265 kts | 31° |
| 2026-05-04 20:12 | 44.67502 | -92.93983 | 6532 ft | 265 kts | 32° |
| 2026-05-04 20:12 | 44.68993 | -92.92527 | 6165 ft | 254 kts | 17° |
| 2026-05-04 20:12 | 44.70649 | -92.92383 | 5823 ft | 234 kts | 343° |
| 2026-05-04 20:12 | 44.72111 | -92.93216 | 5527 ft | 221 kts | 321° |
| 2026-05-04 20:13 | 44.73264 | -92.94593 | 5255 ft | 216 kts | 318° |
| 2026-05-04 20:13 | 44.74457 | -92.95859 | 4982 ft | 214 kts | 320° |
| 2026-05-04 20:13 | 44.75638 | -92.97121 | 4700 ft | 211 kts | 321° |
| 2026-05-04 20:13 | 44.76805 | -92.98341 | 4434 ft | 208 kts | 320° |
| 2026-05-04 20:14 | 44.77955 | -92.99554 | 4162 ft | 203 kts | 320° |
| 2026-05-04 20:14 | 44.78982 | -93.00834 | 3900 ft | 194 kts | 304° |
| 2026-05-04 20:14 | 44.79648 | -93.02431 | 3667 ft | 185 kts | 302° |
| 2026-05-04 20:14 | 44.80341 | -93.03907 | 3437 ft | 174 kts | 301° |
| 2026-05-04 20:15 | 44.80959 | -93.05330 | 3198 ft | 168 kts | 301° |
| 2026-05-04 20:15 | 44.81558 | -93.06710 | 3054 ft | 161 kts | 301° |
| 2026-05-04 20:15 | 44.82137 | -93.08037 | 2840 ft | 154 kts | 301° |
| 2026-05-04 20:15 | 44.82658 | -93.09266 | 2637 ft | 138 kts | 301° |
| 2026-05-04 20:16 | 44.83101 | -93.10291 | 2466 ft | 109 kts | 301° |
| 2026-05-04 20:16 | 44.83483 | -93.11155 | 2320 ft | 100 kts | 301° |
| 2026-05-04 20:16 | 44.83845 | -93.11985 | 2184 ft | 101 kts | 301° |
| 2026-05-04 20:16 | 44.84208 | -93.12859 | 2053 ft | 104 kts | 302° |
| 2026-05-04 20:17 | 44.84591 | -93.13742 | 1922 ft | 108 kts | 301° |
| 2026-05-04 20:17 | 44.84991 | -93.14648 | 1768 ft | 109 kts | 301° |
| 2026-05-04 20:17 | 44.85362 | -93.15514 | 1631 ft | 99 kts | 301° |
| 2026-05-04 20:17 | 44.85700 | -93.16295 | 1492 ft | 89 kts | 298° |
| 2026-05-04 20:18 | 44.86020 | -93.17039 | 1374 ft | 91 kts | 297° |
| 2026-05-04 20:18 | 44.86377 | -93.17847 | 1253 ft | 101 kts | 298° |
| 2026-05-04 20:18 | 44.86713 | -93.18649 | 1110 ft | 90 kts | 296° |
| 2026-05-04 20:18 | 44.87046 | -93.19368 | 965 ft | 86 kts | 295° |
| 2026-05-04 20:19 | 44.87350 | -93.20103 | 850 ft | 90 kts | 296° |
| 2026-05-04 20:19 | 44.87642 | -93.20782 | 821 ft | 68 kts | 295° |
| 2026-05-04 20:19 | 44.87816 | -93.21209 | 818 ft | 30 kts | 302° |
| 2026-05-04 20:19 | 44.87869 | -93.21388 | 817 ft | 15 kts | 247° |
| 2026-05-04 20:20 | 44.87824 | -93.21487 | 818 ft | 8 kts | 239° |
| 2026-05-04 20:20 | 44.87781 | -93.21563 | 818 ft | 14 kts | 227° |
| 2026-05-04 20:20 | 44.87732 | -93.21643 | 818 ft | 5 kts | 243° |
| 2026-05-04 20:20 | 44.87726 | -93.21690 | 818 ft | 3 kts | 264° |
| 2026-05-04 20:21 | 44.87726 | -93.21698 | 818 ft | 0 kts | 265° |